Time;durP1;ratioP1;P1;durP2;ratioP2;P2;SDS_P1;SDS_P2;PMS_P1;PMS_P2;Temp;Humidity;BMP_temperature;BMP_pressure;BME280_temperature;BME280_humidity;BME280_pressure;Samples;Min_cycle;Max_cycle;Signal;HPM_P1;HPM_P2
2021/08/31 04:23:31;;;;;;;;;;;;;;;4.86;96.02;100122.78;5079765;23;19933;-86
2021/08/31 04:25:56;;;;;;;;;;;;;;;4.79;95.87;100132.50;4995520;28;20519;-85
2021/08/31 04:28:21;;;;;;;;;;;;;;;4.78;95.68;100125.50;4995163;28;20543;-86
2021/08/31 04:30:46;;;;;;;;;;;;;;;4.84;95.91;100121.94;4977966;28;19918;-89
2021/08/31 04:33:12;;;;;;;;;;;;;;;4.83;97.28;100118.44;4995443;28;20376;-86
2021/08/31 04:35:38;;;;;;;;;;;;;;;4.89;99.46;100130.63;4995525;28;19914;-85
2021/08/31 04:38:03;;;;;;;;;;;;;;;4.98;100.00;100126.97;4993982;28;19944;-89
2021/08/31 04:40:29;;;;;;;;;;;;;;;5.17;100.00;100131.09;4995379;28;20353;-87
2021/08/31 04:42:54;;;;;;;;;;;;;;;5.32;100.00;100126.50;4995506;28;19925;-91
2021/08/31 04:45:19;;;;;;;;;;;;;;;5.30;100.00;100123.88;4977908;28;20384;-86
2021/08/31 04:47:45;;;;;;;;;;;;;;;5.28;100.00;100128.28;4995092;28;19922;-86
2021/08/31 04:50:10;;;;;;;;;;;;;;;5.24;100.00;100124.84;4995483;28;19928;-94
2021/08/31 04:52:35;;;;;;;;;;;;;;;5.21;100.00;100130.13;4993749;28;20320;-90
2021/08/31 04:55:00;;;;;;;;;;;;;;;5.24;100.00;100132.72;4977451;28;20013;-89
2021/08/31 04:57:26;;;;;;;;;;;;;;;5.38;100.00;100132.50;4994776;28;19925;-87
2021/08/31 04:59:51;;;;;;;;;;;;;;;5.54;100.00;100135.75;4994572;28;19965;-90
2021/08/31 05:02:16;;;;;;;;;;;;;;;5.59;100.00;100131.28;4994467;28;20333;-88
2021/08/31 05:04:42;;;;;;;;;;;;;;;5.61;100.00;100137.38;4994497;28;19929;-86
2021/08/31 05:07:10;;;;;;;;;;;;;;;5.53;100.00;100139.28;4992387;28;19922;-86
2021/08/31 05:09:36;;;;;;;;;;;;;;;5.42;100.00;100139.44;4994706;28;19922;-89
2021/08/31 05:12:01;;;;;;;;;;;;;;;5.38;100.00;100137.78;4994441;28;20445;-87
2021/08/31 05:14:26;;;;;;;;;;;;;;;5.63;100.00;100146.13;4976893;28;19918;-88
2021/08/31 05:16:52;;;;;;;;;;;;;;;5.72;100.00;100141.59;4985145;28;19960;-87
2021/08/31 05:19:17;;;;;;;;;;;;;;;5.87;100.00;100143.97;4976790;28;19922;-87
2021/08/31 05:21:43;;;;;;;;;;;;;;;6.06;100.00;100146.28;4992868;28;19921;-87
2021/08/31 05:24:08;;;;;;;;;;;;;;;5.96;100.00;100159.59;4976282;28;19996;-87
2021/08/31 05:26:34;;;;;;;;;;;;;;;5.91;100.00;100150.88;4985020;28;19973;-87
2021/08/31 05:28:59;;;;;;;;;;;;;;;5.78;100.00;100162.53;4993929;28;19925;-88
2021/08/31 05:31:24;;;;;;;;;;;;;;;5.71;100.00;100158.25;4976681;28;19922;-87
2021/08/31 05:33:49;;;;;;;;;;;;;;;5.62;100.00;100156.66;4994017;28;19918;-87
2021/08/31 05:36:15;;;;;;;;;;;;;;;5.54;100.00;100163.81;4983872;28;19926;-88
2021/08/31 05:38:40;;;;;;;;;;;;;;;5.49;100.00;100163.00;4976018;28;19929;-88
2021/08/31 05:41:05;;;;;;;;;;;;;;;5.48;100.00;100169.16;4976704;28;20431;-88
2021/08/31 05:43:31;;;;;;;;;;;;;;;5.37;100.00;100171.97;4993593;28;19918;-90
2021/08/31 05:45:56;;;;;;;;;;;;;;;5.37;100.00;100164.06;4976415;28;20008;-89
2021/08/31 05:48:21;;;;;;;;;;;;;;;5.29;100.00;100172.06;4976585;28;20368;-90
2021/08/31 05:50:46;;;;;;;;;;;;;;;5.26;100.00;100167.75;4976524;28;19953;-89
2021/08/31 05:53:12;;;;;;;;;;;;;;;5.31;100.00;100166.78;4992508;28;19924;-90
2021/08/31 05:55:37;;;;;;;;;;;;;;;5.26;100.00;100173.00;4976414;28;20280;-90
2021/08/31 05:58:02;;;;;;;;;;;;;;;5.27;100.00;100165.97;4976471;28;19921;-89
2021/08/31 06:00:28;;;;;;;;;;;;;;;5.22;100.00;100173.06;4993924;28;19917;-90
2021/08/31 06:02:56;;;;;;;;;;;;;;;5.23;100.00;100180.94;4976316;28;19945;-89
2021/08/31 06:05:22;;;;;;;;;;;;;;;5.15;100.00;100174.03;4976498;28;20002;-89
2021/08/31 06:07:47;;;;;;;;;;;;;;;5.19;100.00;100181.00;4975127;28;20037;-90
2021/08/31 06:10:17;;;;;;;;;;;;;;;5.16;100.00;100189.78;4976398;28;19924;-91
2021/08/31 06:12:43;;;;;;;;;;;;;;;5.13;100.00;100186.31;4975995;28;20008;-92
2021/08/31 06:15:08;;;;;;;;;;;;;;;5.09;100.00;100190.75;4976459;28;20029;-91
2021/08/31 06:17:37;;;;;;;;;;;;;;;5.14;100.00;100194.19;4976454;28;19917;-90
2021/08/31 06:20:03;;;;;;;;;;;;;;;5.12;100.00;100190.69;4976099;28;19964;-90
2021/08/31 06:22:28;;;;;;;;;;;;;;;5.12;100.00;100198.56;4975108;28;20332;-90
2021/08/31 06:24:53;;;;;;;;;;;;;;;5.13;100.00;100207.34;4976207;28;19928;-91
2021/08/31 06:27:18;;;;;;;;;;;;;;;5.09;100.00;100203.91;4976324;28;20325;-92
2021/08/31 06:29:44;;;;;;;;;;;;;;;5.07;100.00;100201.28;4976071;28;19918;-91
2021/08/31 06:32:09;;;;;;;;;;;;;;;5.03;100.00;100206.59;4976227;28;19922;-92
2021/08/31 06:34:34;;;;;;;;;;;;;;;5.03;100.00;100215.34;4975003;28;19918;-91
2021/08/31 06:37:00;;;;;;;;;;;;;;;4.99;100.00;100211.00;4975342;28;20013;-90
2021/08/31 06:39:25;;;;;;;;;;;;;;;4.97;100.00;100206.69;4976389;28;19918;-91
2021/08/31 06:41:51;;;;;;;;;;;;;;;4.93;100.00;100213.75;4976158;28;20001;-92
2021/08/31 06:44:16;;;;;;;;;;;;;;;4.97;100.00;100210.16;4976178;28;19972;-93
2021/08/31 07:42:22;;;;;;;;;;;;;;;4.99;100.00;100226.75;5589032;23;19934;-91
2021/08/31 07:44:47;;;;;;;;;;;;;;;5.01;100.00;100225.00;4987438;28;19922;-90
2021/08/31 07:47:13;;;;;;;;;;;;;;;15.84;81.70;100196.78;4988328;28;19964;-80
2021/08/31 07:49:39;;;;;;;;;;;;;;;9.71;89.96;100226.78;5005736;28;19968;-90
2021/08/31 07:52:04;;;;;;;;;;;;;;;7.41;100.00;100229.53;5002129;28;19949;-89
2021/08/31 07:54:30;;;;;;;;;;;;;;;7.06;100.00;100223.28;4988367;28;19925;-88
2021/08/31 07:56:55;;;;;;;;;;;;;;;8.85;100.00;100208.25;4987020;28;19922;-91
2021/08/31 07:59:21;;;;;;;;;;;;;;;10.43;100.00;100214.72;4987938;28;19967;-86
2021/08/31 08:01:46;;;;;;;;;;;;;;;16.05;86.44;100195.53;5006355;28;19918;-84
2021/08/31 08:04:11;;;;;;;;;;;;;;;16.49;77.64;100197.31;5005348;28;19925;-80
2021/08/31 08:06:38;;;;;;;;;;;;;;;10.93;97.99;100229.69;5005708;28;20000;-89
2021/08/31 08:09:03;;;;;;;;;;;;;;;9.36;100.00;100228.75;4988500;28;20326;-89
2021/08/31 08:11:29;;;;;;;;;;;;;;;8.69;100.00;100234.25;4986735;28;20017;-89
2021/08/31 08:13:54;;;;;;;;;;;;;;;8.22;100.00;100234.63;4987317;28;19961;-89
2021/08/31 08:16:20;;;;;;;;;;;;;;;7.91;100.00;100242.44;4987995;28;19921;-90
2021/08/31 08:18:46;;;;;;;;;;;;;;;7.72;100.00;100240.25;4987295;28;19918;-91
2021/08/31 08:21:11;;;;;;;;;;;;;;;7.60;100.00;100251.09;5003775;28;20392;-89
2021/08/31 08:23:37;;;;;;;;;;;;;;;7.50;100.00;100249.53;4987857;28;19934;-90
2021/08/31 08:26:03;;;;;;;;;;;;;;;7.34;100.00;100249.03;4988034;28;20016;-89
2021/08/31 08:28:28;;;;;;;;;;;;;;;7.28;100.00;100242.13;4986555;28;19926;-90
2021/08/31 08:30:53;;;;;;;;;;;;;;;7.20;100.00;100244.06;4987765;28;19921;-90
2021/08/31 08:33:19;;;;;;;;;;;;;;;7.20;100.00;100238.81;4987697;28;19918;-90
2021/08/31 08:35:45;;;;;;;;;;;;;;;7.22;99.32;100247.53;4988187;28;19924;-91
2021/08/31 08:38:10;;;;;;;;;;;;;;;7.11;99.11;100234.59;4986977;28;20408;-90
2021/08/31 08:40:36;;;;;;;;;;;;;;;7.14;99.48;100249.47;4987317;28;19941;-90
2021/08/31 08:43:02;;;;;;;;;;;;;;;7.08;98.79;100253.97;4985299;28;19929;-90
2021/08/31 08:45:28;;;;;;;;;;;;;;;7.15;99.47;100259.97;4985567;28;19945;-89
2021/08/31 08:47:53;;;;;;;;;;;;;;;7.12;99.23;100253.91;4987144;28;19917;-90
2021/08/31 08:50:18;;;;;;;;;;;;;;;7.06;99.44;100255.75;4987475;28;19921;-89
2021/08/31 08:52:44;;;;;;;;;;;;;;;7.07;98.93;100256.66;4986330;28;20296;-90
2021/08/31 08:55:11;;;;;;;;;;;;;;;7.01;98.33;100257.63;4986774;28;19967;-90
2021/08/31 08:57:37;;;;;;;;;;;;;;;7.07;98.19;100260.13;5002110;28;19925;-90
2021/08/31 09:00:07;;;;;;;;;;;;;;;6.97;98.09;100270.88;4987075;28;20340;-90
2021/08/31 09:02:39;;;;;;;;;;;;;;;6.91;98.05;100270.13;5004427;28;19924;-90
2021/08/31 09:05:05;;;;;;;;;;;;;;;7.01;98.96;100276.06;4986973;28;20013;-90
2021/08/31 09:07:34;;;;;;;;;;;;;;;6.99;97.67;100277.00;4987317;28;19921;-90
2021/08/31 09:10:14;;;;;;;;;;;;;;;6.93;98.17;100269.25;5003922;28;20415;-91
2021/08/31 09:12:40;;;;;;;;;;;;;;;6.93;97.94;100267.47;4985357;28;19979;-90
2021/08/31 09:15:38;;;;;;;;;;;;;;;6.91;97.71;100264.84;5004402;28;19921;-89
2021/08/31 09:18:04;;;;;;;;;;;;;;;6.87;97.73;100264.94;4960580;28;20040;-90
2021/08/31 09:20:30;;;;;;;;;;;;;;;6.93;97.96;100269.25;4988025;28;20260;-91
2021/08/31 09:22:55;;;;;;;;;;;;;;;6.93;98.65;100261.34;4986050;28;19913;-90
2021/08/31 09:25:31;;;;;;;;;;;;;;;6.91;98.15;100267.50;4986490;28;19928;-90
2021/08/31 09:27:56;;;;;;;;;;;;;;;6.91;98.31;100269.25;4984618;28;19918;-90
2021/08/31 09:30:23;;;;;;;;;;;;;;;6.86;98.18;100260.56;5004283;28;19928;-89
2021/08/31 09:33:08;;;;;;;;;;;;;;;6.85;97.95;100264.97;5002949;28;19957;-90
2021/08/31 09:35:36;;;;;;;;;;;;;;;6.88;97.42;100258.78;4986701;28;20380;-90
2021/08/31 09:38:05;;;;;;;;;;;;;;;6.82;97.33;100262.41;4985366;28;19918;-89
2021/08/31 09:40:36;;;;;;;;;;;;;;;6.84;97.23;100270.28;4985974;28;19917;-91
2021/08/31 09:43:06;;;;;;;;;;;;;;;6.86;97.40;100272.00;4983894;28;20016;-91
2021/08/31 09:45:39;;;;;;;;;;;;;;;6.85;97.11;100272.03;4985353;28;19918;-91
2021/08/31 09:48:05;;;;;;;;;;;;;;;6.81;97.28;100271.22;5004175;28;19957;-91
2021/08/31 09:50:31;;;;;;;;;;;;;;;6.80;97.77;100273.88;4985887;28;20364;-90
2021/08/31 09:53:00;;;;;;;;;;;;;;;6.73;97.44;100271.38;4986689;28;19922;-89
2021/08/31 09:55:25;;;;;;;;;;;;;;;6.78;97.49;100275.66;4985929;28;19921;-91
2021/08/31 09:57:50;;;;;;;;;;;;;;;6.82;97.31;100283.47;4985398;28;19940;-89
2021/08/31 10:00:18;;;;;;;;;;;;;;;6.80;97.50;100274.75;4986371;28;19929;-90
2021/08/31 10:02:48;;;;;;;;;;;;;;;6.80;97.16;100274.75;4985894;28;19917;-90
2021/08/31 10:05:13;;;;;;;;;;;;;;;6.73;97.26;100278.38;4985183;28;20031;-90
2021/08/31 10:07:41;;;;;;;;;;;;;;;6.77;97.50;100271.31;4985747;28;19973;-91
2021/08/31 10:10:07;;;;;;;;;;;;;;;6.87;97.57;100275.47;4986055;28;20397;-90
2021/08/31 10:12:34;;;;;;;;;;;;;;;6.90;97.30;100281.56;4985261;28;19918;-91
2021/08/31 10:14:59;;;;;;;;;;;;;;;6.85;97.38;100277.28;4985136;28;19921;-91
2021/08/31 10:17:28;;;;;;;;;;;;;;;6.86;97.31;100281.63;4985664;28;20012;-90
2021/08/31 10:19:55;;;;;;;;;;;;;;;6.85;97.30;100277.28;4985896;28;19918;-90
2021/08/31 10:22:21;;;;;;;;;;;;;;;6.88;96.97;100279.88;4984680;28;19925;-91
2021/08/31 10:24:46;;;;;;;;;;;;;;;7.00;97.08;100291.91;4985944;28;19917;-91
2021/08/31 10:27:31;;;;;;;;;;;;;;;6.98;97.69;100294.56;5000699;28;19918;-89
2021/08/31 10:30:14;;;;;;;;;;;;;;;6.91;97.57;100288.56;4985432;28;20288;-91
2021/08/31 10:32:40;;;;;;;;;;;;;;;6.92;97.09;100286.78;4985352;28;19922;-91
2021/08/31 10:35:05;;;;;;;;;;;;;;;6.85;96.58;100291.31;5002183;28;19973;-90
2021/08/31 10:37:44;;;;;;;;;;;;;;;6.90;97.49;100286.81;4985361;28;19940;-90
2021/08/31 10:40:09;;;;;;;;;;;;;;;6.86;97.10;100271.09;4985276;28;20015;-90
2021/08/31 10:42:35;;;;;;;;;;;;;;;6.79;96.38;100278.25;4984655;28;20008;-90
2021/08/31 10:45:01;;;;;;;;;;;;;;;6.81;96.92;100276.50;4985672;28;19921;-91
2021/08/31 10:47:28;;;;;;;;;;;;;;;6.89;96.62;100274.56;4984863;28;19925;-90
2021/08/31 10:49:56;;;;;;;;;;;;;;;6.77;96.48;100279.22;5002180;28;20292;-90
2021/08/31 10:52:34;;;;;;;;;;;;;;;6.77;96.30;100279.22;4984432;28;19917;-91
2021/08/31 10:54:59;;;;;;;;;;;;;;;6.70;96.58;100289.84;4985069;28;20004;-91
2021/08/31 10:57:45;;;;;;;;;;;;;;;6.69;96.29;100287.25;4984295;28;20441;-90
2021/08/31 11:00:30;;;;;;;;;;;;;;;6.76;96.68;100283.59;4984716;28;20396;-89
2021/08/31 11:02:58;;;;;;;;;;;;;;;6.75;96.08;100295.03;4968191;28;20304;-91
2021/08/31 11:05:26;;;;;;;;;;;;;;;6.75;95.72;100291.50;4986031;28;19918;-89
2021/08/31 11:07:59;;;;;;;;;;;;;;;6.71;96.24;100302.09;4989300;28;20424;-90
2021/08/31 11:10:26;;;;;;;;;;;;;;;6.72;95.82;100292.47;4989648;28;20426;-90
2021/08/31 11:12:52;;;;;;;;;;;;;;;6.71;96.05;100291.56;5005225;28;19928;-90
2021/08/31 11:15:21;;;;;;;;;;;;;;;6.66;95.77;100298.69;4988876;28;19930;-91
2021/08/31 11:17:48;;;;;;;;;;;;;;;6.63;96.16;100288.22;4989510;28;19928;-90
2021/08/31 11:20:16;;;;;;;;;;;;;;;6.79;96.82;100290.56;4988864;28;19918;-89
2021/08/31 11:22:41;;;;;;;;;;;;;;;6.76;96.76;100282.72;4988785;28;19932;-90
2021/08/31 11:25:07;;;;;;;;;;;;;;;6.80;96.24;100281.78;4989222;28;19926;-89
2021/08/31 11:27:50;;;;;;;;;;;;;;;6.89;97.69;100282.47;5005331;28;19921;-88
2021/08/31 11:30:16;;;;;;;;;;;;;;;6.82;96.61;100277.34;4988622;28;19963;-88
2021/08/31 11:32:41;;;;;;;;;;;;;;;6.82;96.47;100279.97;4989107;28;20012;-89
2021/08/31 11:35:07;;;;;;;;;;;;;;;6.75;95.86;100287.13;5004305;28;19956;-90
2021/08/31 11:37:46;;;;;;;;;;;;;;;6.63;95.90;100282.09;4989150;28;20059;-91
2021/08/31 11:40:11;;;;;;;;;;;;;;;6.67;96.75;100284.66;5006594;28;20372;-91
2021/08/31 11:42:49;;;;;;;;;;;;;;;6.88;97.85;100285.13;4987665;28;19928;-91
2021/08/31 11:45:16;;;;;;;;;;;;;;;6.73;96.72;100278.38;4988293;28;19935;-89
2021/08/31 11:47:41;;;;;;;;;;;;;;;6.75;97.20;100275.72;4989918;28;20310;-89
2021/08/31 11:50:07;;;;;;;;;;;;;;;6.69;96.28;100289.88;4987797;28;19922;-92
2021/08/31 11:52:32;;;;;;;;;;;;;;;6.70;96.25;100283.69;4988274;28;19922;-91
2021/08/31 11:54:58;;;;;;;;;;;;;;;6.76;96.45;100285.38;4989344;28;20419;-89
2021/08/31 11:57:30;;;;;;;;;;;;;;;6.69;96.83;100290.75;4988016;28;19930;-90
2021/08/31 11:59:56;;;;;;;;;;;;;;;6.71;96.81;100288.94;4988621;28;19924;-91
2021/08/31 12:02:23;;;;;;;;;;;;;;;6.75;96.95;100292.41;4988044;28;20684;-91
2021/08/31 12:04:54;;;;;;;;;;;;;;;6.77;96.21;100293.25;5004139;28;19921;-89
2021/08/31 12:07:23;;;;;;;;;;;;;;;6.76;96.11;100283.59;4988789;28;19918;-92
2021/08/31 12:09:49;;;;;;;;;;;;;;;6.75;95.72;100292.41;4986919;28;19929;-91
2021/08/31 12:12:15;;;;;;;;;;;;;;;6.69;95.88;100293.38;4987146;28;19921;-91
2021/08/31 12:14:40;;;;;;;;;;;;;;;6.73;96.30;100302.97;4988005;28;19918;-91
2021/08/31 12:17:06;;;;;;;;;;;;;;;6.63;96.63;100303.16;4986714;28;20016;-91
2021/08/31 12:19:31;;;;;;;;;;;;;;;6.65;96.14;100299.63;4987549;28;20368;-92
2021/08/31 12:22:04;;;;;;;;;;;;;;;6.72;96.64;100297.72;4988867;28;19922;-91
2021/08/31 12:24:29;;;;;;;;;;;;;;;6.82;97.51;100291.38;4988445;28;20012;-91
2021/08/31 12:27:04;;;;;;;;;;;;;;;6.93;97.80;100299.06;4987013;28;19989;-89
2021/08/31 12:29:42;;;;;;;;;;;;;;;6.87;97.68;100296.56;4986667;28;19967;-91
2021/08/31 12:32:09;;;;;;;;;;;;;;;6.77;96.88;100295.88;4988579;28;19921;-91
2021/08/31 12:34:34;;;;;;;;;;;;;;;6.75;96.70;100296.78;4986207;28;19914;-91
2021/08/31 12:37:00;;;;;;;;;;;;;;;6.82;96.53;100291.38;4987424;28;19918;-91
2021/08/31 12:39:27;;;;;;;;;;;;;;;6.81;97.13;100302.81;4987731;28;20384;-91
2021/08/31 12:41:52;;;;;;;;;;;;;;;6.73;96.98;100304.72;4987259;28;19917;-91
2021/08/31 12:44:19;;;;;;;;;;;;;;;6.78;97.12;100307.25;5004831;28;20302;-91
2021/08/31 12:46:45;;;;;;;;;;;;;;;6.77;96.81;100302.91;4987065;28;19924;-91
2021/08/31 12:49:16;;;;;;;;;;;;;;;6.72;96.47;100297.72;4986500;28;19917;-91
2021/08/31 12:51:50;;;;;;;;;;;;;;;6.79;96.30;100301.09;4988934;28;19918;-89
2021/08/31 12:54:26;;;;;;;;;;;;;;;6.71;96.39;100299.47;4986645;28;20268;-91
2021/08/31 12:56:53;;;;;;;;;;;;;;;6.77;96.51;100297.66;5003616;28;19972;-90
2021/08/31 12:59:29;;;;;;;;;;;;;;;6.70;96.73;100295.13;4987129;28;20369;-91
2021/08/31 13:01:54;;;;;;;;;;;;;;;6.70;96.61;100308.28;5003647;28;20322;-91
2021/08/31 13:04:19;;;;;;;;;;;;;;;6.77;96.41;100316.09;5004700;28;19922;-91
2021/08/31 13:06:48;;;;;;;;;;;;;;;6.76;96.64;100314.34;4987514;28;19924;-90
2021/08/31 13:09:18;;;;;;;;;;;;;;;6.75;96.33;100308.22;4986330;28;20340;-92
2021/08/31 13:11:45;;;;;;;;;;;;;;;6.73;96.00;100309.97;4986657;28;19917;-90
2021/08/31 13:14:12;;;;;;;;;;;;;;;6.70;95.98;100313.56;4987030;28;19921;-89
2021/08/31 13:16:38;;;;;;;;;;;;;;;6.69;96.65;100309.19;5003408;28;19917;-91
2021/08/31 13:19:04;;;;;;;;;;;;;;;6.71;96.62;100303.88;5003439;28;19917;-90
2021/08/31 13:21:29;;;;;;;;;;;;;;;6.66;96.51;100313.63;4987025;28;19923;-87
2021/08/31 13:23:54;;;;;;;;;;;;;;;6.73;96.20;100310.88;4987855;28;19924;-92
2021/08/31 13:26:22;;;;;;;;;;;;;;;6.70;96.28;100310.03;5003009;28;19921;-92
2021/08/31 13:28:47;;;;;;;;;;;;;;;6.70;96.29;100310.03;4986319;28;19917;-92
2021/08/31 13:31:12;;;;;;;;;;;;;;;6.66;96.72;100316.28;5002545;28;19918;-91
2021/08/31 13:33:38;;;;;;;;;;;;;;;6.63;96.71;100314.56;4986672;28;19975;-89
2021/08/31 13:36:03;;;;;;;;;;;;;;;6.67;96.52;100307.47;5003496;28;19918;-91
2021/08/31 13:38:29;;;;;;;;;;;;;;;6.70;96.48;100307.41;4986816;28;19929;-91
2021/08/31 13:40:54;;;;;;;;;;;;;;;6.67;96.37;100312.72;4985545;28;19918;-89
2021/08/31 13:43:19;;;;;;;;;;;;;;;6.72;96.60;100318.78;4985449;28;20336;-92
2021/08/31 13:45:46;;;;;;;;;;;;;;;6.71;96.13;100311.78;4986719;28;19940;-93
2021/08/31 13:48:11;;;;;;;;;;;;;;;6.75;96.64;100312.59;4986824;28;19921;-91
2021/08/31 13:50:36;;;;;;;;;;;;;;;6.74;96.57;100317.00;4987402;28;20396;-92
2021/08/31 13:53:02;;;;;;;;;;;;;;;6.70;96.64;100310.94;4987387;28;19995;-91
2021/08/31 13:55:31;;;;;;;;;;;;;;;6.73;96.26;100316.13;4986153;28;19917;-91
2021/08/31 13:57:56;;;;;;;;;;;;;;;6.72;96.79;100321.44;4985112;28;19960;-89
2021/08/31 14:00:22;;;;;;;;;;;;;;;6.65;96.39;100320.69;4987260;28;19961;-89
2021/08/31 14:02:47;;;;;;;;;;;;;;;6.68;96.39;100323.22;4986330;28;19925;-91
2021/08/31 14:05:12;;;;;;;;;;;;;;;6.73;96.22;100320.50;4986379;28;19928;-91
2021/08/31 14:07:37;;;;;;;;;;;;;;;6.67;96.27;100315.34;4986285;28;19928;-91
2021/08/31 14:10:03;;;;;;;;;;;;;;;6.68;96.40;100317.09;4985845;28;19976;-89
2021/08/31 14:12:28;;;;;;;;;;;;;;;6.62;96.41;100311.94;4985152;28;19922;-91
2021/08/31 14:14:54;;;;;;;;;;;;;;;6.54;96.50;100315.59;4984994;28;19917;-91
2021/08/31 14:17:19;;;;;;;;;;;;;;;6.60;95.97;100313.75;4986437;28;19917;-92
2021/08/31 14:19:44;;;;;;;;;;;;;;;6.66;96.13;100319.75;4985379;28;20331;-88
2021/08/31 14:22:09;;;;;;;;;;;;;;;6.60;95.96;100319.88;4985109;28;19972;-90
2021/08/31 14:24:35;;;;;;;;;;;;;;;6.61;96.67;100320.75;4985296;28;19925;-93
2021/08/31 14:27:00;;;;;;;;;;;;;;;6.54;96.08;100323.50;4985198;28;20329;-89
2021/08/31 14:29:25;;;;;;;;;;;;;;;6.59;96.29;100325.16;4985765;28;19917;-88
2021/08/31 14:31:50;;;;;;;;;;;;;;;6.57;96.05;100322.56;5002824;28;19924;-92
2021/08/31 14:34:16;;;;;;;;;;;;;;;6.56;96.16;100323.47;4985820;28;20381;-91
2021/08/31 14:36:41;;;;;;;;;;;;;;;6.56;96.41;100312.94;4985942;28;19971;-91
2021/08/31 14:39:07;;;;;;;;;;;;;;;6.61;96.00;100321.63;4985481;28;19975;-88
2021/08/31 14:41:32;;;;;;;;;;;;;;;6.63;96.38;100319.81;4984423;28;20411;-88
2021/08/31 14:43:57;;;;;;;;;;;;;;;6.55;95.65;100325.22;4985809;28;19930;-88
2021/08/31 14:46:23;;;;;;;;;;;;;;;6.65;96.33;100327.69;5001468;28;20393;-88
2021/08/31 14:48:48;;;;;;;;;;;;;;;6.67;96.06;100329.41;4985217;28;19921;-91
2021/08/31 14:51:13;;;;;;;;;;;;;;;6.61;96.55;100329.53;4985410;28;19924;-88
2021/08/31 14:53:39;;;;;;;;;;;;;;;6.64;96.34;100326.84;4984622;28;20400;-91
2021/08/31 14:56:04;;;;;;;;;;;;;;;6.54;95.83;100330.50;4984906;28;19918;-89
2021/08/31 14:58:30;;;;;;;;;;;;;;;6.53;96.36;100323.53;4983307;28;20004;-90
2021/08/31 15:00:55;;;;;;;;;;;;;;;6.55;96.44;100325.22;4985070;28;19922;-91
2021/08/31 15:03:21;;;;;;;;;;;;;;;6.50;96.70;100323.56;5002523;28;19925;-91
2021/08/31 15:05:46;;;;;;;;;;;;;;;6.57;96.28;100327.81;5002221;28;19976;-89
2021/08/31 15:08:11;;;;;;;;;;;;;;;6.61;96.49;100331.28;5002569;28;20347;-86
2021/08/31 15:10:36;;;;;;;;;;;;;;;6.58;96.03;100326.94;4984751;28;19922;-88
2021/08/31 15:13:02;;;;;;;;;;;;;;;6.50;96.26;100315.69;4984290;28;19949;-89
2021/08/31 15:15:27;;;;;;;;;;;;;;;6.58;95.93;100321.69;4985577;28;19961;-88
2021/08/31 15:17:52;;;;;;;;;;;;;;;6.50;95.93;100319.16;4984610;28;19917;-88
2021/08/31 15:20:18;;;;;;;;;;;;;;;6.56;95.92;100326.09;5002770;28;20199;-92
2021/08/31 15:22:43;;;;;;;;;;;;;;;6.51;96.41;100322.66;4983558;28;20344;-89
2021/08/31 15:25:09;;;;;;;;;;;;;;;6.49;96.25;100321.81;4985010;28;19929;-88
2021/08/31 15:27:35;;;;;;;;;;;;;;;6.52;96.21;100325.28;4983755;28;20576;-89
2021/08/31 15:30:00;;;;;;;;;;;;;;;6.53;96.65;100328.78;4985543;28;19918;-88
2021/08/31 15:32:26;;;;;;;;;;;;;;;6.48;96.28;100331.50;4982081;28;20396;-87
2021/08/31 15:34:51;;;;;;;;;;;;;;;6.49;96.05;100328.00;5000461;28;19960;-93
2021/08/31 15:37:16;;;;;;;;;;;;;;;6.51;95.90;100325.28;5009414;28;19925;-89
2021/08/31 15:39:42;;;;;;;;;;;;;;;6.49;95.56;100333.25;4985043;28;19921;-90
2021/08/31 15:42:07;;;;;;;;;;;;;;;6.48;96.27;100328.00;4982886;28;19922;-88
2021/08/31 15:44:35;;;;;;;;;;;;;;;6.49;96.15;100328.00;5003762;28;19948;-91
2021/08/31 15:47:00;;;;;;;;;;;;;;;6.44;95.85;100324.53;4983997;28;19929;-89
2021/08/31 15:49:26;;;;;;;;;;;;;;;6.40;96.07;100321.97;5004112;28;20389;-88
2021/08/31 15:51:51;;;;;;;;;;;;;;;6.48;95.82;100325.38;4984707;28;19921;-87
2021/08/31 15:54:16;;;;;;;;;;;;;;;6.52;95.69;100324.41;4989875;28;19918;-88
2021/08/31 15:56:42;;;;;;;;;;;;;;;6.47;95.92;100313.09;5007131;28;19940;-91
2021/08/31 15:59:07;;;;;;;;;;;;;;;6.41;96.23;100321.09;5005436;28;20487;-88
2021/08/31 16:01:32;;;;;;;;;;;;;;;6.41;96.73;100324.59;4989945;28;19921;-88
2021/08/31 16:03:58;;;;;;;;;;;;;;;6.51;96.05;100320.03;4988877;28;19929;-89
2021/08/31 16:06:24;;;;;;;;;;;;;;;6.48;96.00;100320.97;5006794;28;19925;-90
2021/08/31 16:08:49;;;;;;;;;;;;;;;6.47;95.73;100316.59;4989195;28;19929;-90
2021/08/31 16:11:14;;;;;;;;;;;;;;;6.48;95.79;100320.13;4988321;28;19972;-88
2021/08/31 16:13:40;;;;;;;;;;;;;;;6.44;96.01;100314.00;5003758;28;19917;-90
2021/08/31 16:16:06;;;;;;;;;;;;;;;6.40;95.79;100314.97;4988858;28;20009;-87
2021/08/31 16:18:35;;;;;;;;;;;;;;;6.44;95.90;100319.28;4987917;28;19917;-90
2021/08/31 16:21:01;;;;;;;;;;;;;;;6.43;96.11;100308.78;5007651;28;20266;-88
2021/08/31 16:23:26;;;;;;;;;;;;;;;6.38;96.03;100314.13;5002382;28;20012;-87
2021/08/31 16:25:52;;;;;;;;;;;;;;;6.34;96.58;100313.31;4989353;28;20485;-87
2021/08/31 16:28:18;;;;;;;;;;;;;;;6.45;95.93;100317.53;5002575;28;19925;-90
2021/08/31 16:30:43;;;;;;;;;;;;;;;6.38;96.00;100315.88;4989930;28;20830;-91
2021/08/31 16:33:08;;;;;;;;;;;;;;;6.46;95.95;100312.25;4987351;28;19922;-88
2021/08/31 16:35:34;;;;;;;;;;;;;;;6.49;96.47;100316.56;4990227;28;19922;-87
2021/08/31 16:37:59;;;;;;;;;;;;;;;6.36;96.29;100314.13;4987335;28;20017;-91
2021/08/31 16:40:24;;;;;;;;;;;;;;;6.41;96.51;100313.19;5002731;28;19922;-90
2021/08/31 16:42:49;;;;;;;;;;;;;;;6.43;96.40;100311.41;4986252;28;20015;-89
2021/08/31 16:45:15;;;;;;;;;;;;;;;6.36;96.12;100311.50;4987136;28;19928;-89
2021/08/31 16:47:43;;;;;;;;;;;;;;;6.31;96.56;100308.09;4986184;28;19992;-91
2021/08/31 16:50:09;;;;;;;;;;;;;;;6.36;96.13;100306.25;4990024;28;19924;-88
2021/08/31 16:52:35;;;;;;;;;;;;;;;6.36;96.30;100308.88;4989025;28;19918;-91
2021/08/31 16:55:01;;;;;;;;;;;;;;;6.34;96.28;100308.03;4985596;28;19928;-90
2021/08/31 16:57:26;;;;;;;;;;;;;;;6.29;96.46;100309.88;4987171;28;19925;-91
2021/08/31 16:59:51;;;;;;;;;;;;;;;6.28;95.96;100302.88;4988523;28;19921;-92
2021/08/31 17:02:16;;;;;;;;;;;;;;;6.30;96.17;100306.38;4991185;28;19972;-90
2021/08/31 17:04:42;;;;;;;;;;;;;;;6.29;96.18;100296.72;4986727;28;20625;-92
2021/08/31 17:07:07;;;;;;;;;;;;;;;6.25;96.23;100302.06;4988800;28;19917;-90
2021/08/31 17:09:33;;;;;;;;;;;;;;;6.30;95.76;100308.13;4989163;28;20016;-92
2021/08/31 17:11:58;;;;;;;;;;;;;;;6.32;96.13;100309.84;4986712;28;19972;-92
2021/08/31 17:14:23;;;;;;;;;;;;;;;6.29;96.04;100304.63;5001595;28;19964;-91
2021/08/31 17:16:49;;;;;;;;;;;;;;;6.33;95.68;100306.31;5005663;28;19929;-88
2021/08/31 17:19:14;;;;;;;;;;;;;;;6.38;95.50;100315.88;5003889;28;19922;-89
2021/08/31 17:21:39;;;;;;;;;;;;;;;6.39;95.95;100315.88;4988972;28;19961;-91
2021/08/31 17:24:05;;;;;;;;;;;;;;;6.42;97.11;100320.22;4987419;28;20019;-88
2021/08/31 17:26:32;;;;;;;;;;;;;;;6.40;96.57;100314.09;5004255;28;20360;-87
2021/08/31 17:28:59;;;;;;;;;;;;;;;6.37;96.48;100320.28;4986710;28;19926;-87
2021/08/31 17:31:24;;;;;;;;;;;;;;;6.42;96.56;100314.94;4987912;28;20325;-90
2021/08/31 17:33:51;;;;;;;;;;;;;;;6.38;96.46;100318.53;5003092;28;19922;-88
2021/08/31 17:36:16;;;;;;;;;;;;;;;6.40;96.33;100324.63;4986101;28;19918;-91
2021/08/31 17:38:43;;;;;;;;;;;;;;;6.33;96.22;100319.47;4987879;28;19929;-88
2021/08/31 17:41:08;;;;;;;;;;;;;;;6.30;96.40;100319.53;4985301;28;20008;-88
2021/08/31 17:43:33;;;;;;;;;;;;;;;6.30;96.60;100327.44;4999830;28;20008;-91
2021/08/31 17:46:00;;;;;;;;;;;;;;;6.28;96.34;100321.31;4986550;28;19981;-88
2021/08/31 17:48:25;;;;;;;;;;;;;;;6.38;96.35;100326.41;4985703;28;19922;-90
2021/08/31 17:51:03;;;;;;;;;;;;;;;6.33;96.31;100322.13;4986591;28;19948;-88
2021/08/31 17:53:28;;;;;;;;;;;;;;;6.34;96.72;100334.38;4987475;28;19926;-90
2021/08/31 17:55:53;;;;;;;;;;;;;;;6.36;96.53;100334.34;4986671;28;19918;-88
2021/08/31 17:58:19;;;;;;;;;;;;;;;6.34;96.42;100333.50;4985247;28;19922;-90
2021/08/31 18:00:44;;;;;;;;;;;;;;;6.34;96.34;100344.88;4986421;28;19925;-91